Time;durP1;ratioP1;P1;durP2;ratioP2;P2;SDS_P1;SDS_P2;PMS_P1;PMS_P2;Temp;Humidity;BMP_temperature;BMP_pressure;BME280_temperature;BME280_humidity;BME280_pressure;Samples;Min_cycle;Max_cycle;Signal;HPM_P1;HPM_P2
2023/08/15 00:07:31;;;;;;;15.90;10.48;;;;;;;25.45;100.00;100938.97;20895370;28;20060;-73
2023/08/15 00:17:47;;;;;;;13.88;10.48;;;;;;;25.39;100.00;100932.00;20905789;28;20136;-73
2023/08/15 00:28:09;;;;;;;14.73;10.30;;;;;;;25.37;100.00;100933.91;20902002;28;20061;-73
2023/08/15 00:38:34;;;;;;;14.07;10.95;;;;;;;25.11;100.00;100935.00;20895561;28;20057;-74
2023/08/15 00:48:57;;;;;;;12.68;10.43;;;;;;;25.12;100.00;100931.34;20883906;28;20056;-72
2023/08/15 00:59:22;;;;;;;14.13;11.20;;;;;;;25.09;100.00;100928.78;20884822;28;20455;-74
2023/08/15 01:09:44;;;;;;;13.68;10.52;;;;;;;24.95;100.00;100915.81;20899625;28;20061;-73
2023/08/15 01:20:13;;;;;;;14.73;11.70;;;;;;;24.88;100.00;100918.81;20889629;28;20567;-73
2023/08/15 01:30:41;;;;;;;13.52;11.10;;;;;;;24.80;100.00;100908.34;20887139;28;20147;-74
2023/08/15 01:41:07;;;;;;;14.40;11.68;;;;;;;24.73;100.00;100908.66;20880839;28;20453;-73
2023/08/15 01:51:31;;;;;;;13.20;11.68;;;;;;;24.70;100.00;100903.34;20897742;28;20045;-74
2023/08/15 02:01:53;;;;;;;15.25;12.05;;;;;;;24.42;100.00;100900.88;20880759;28;20049;-73
2023/08/15 02:12:17;;;;;;;15.45;12.43;;;;;;;24.42;100.00;100887.38;20876151;28;20126;-73
2023/08/15 02:22:29;;;;;;;16.02;12.45;;;;;;;24.43;100.00;100898.13;20892092;28;20059;-73
2023/08/15 02:32:53;;;;;;;16.88;12.63;;;;;;;24.43;100.00;100898.13;20866204;28;20045;-74
2023/08/15 02:43:16;;;;;;;18.48;12.35;;;;;;;24.36;100.00;100891.19;20893053;28;20076;-73
2023/08/15 02:53:40;;;;;;;15.13;12.70;;;;;;;24.34;100.00;100900.31;20878686;28;20103;-74
2023/08/15 03:04:02;;;;;;;14.52;11.98;;;;;;;24.29;100.00;100896.88;20877471;28;20491;-73
2023/08/15 03:14:28;;;;;;;15.18;12.18;;;;;;;24.33;100.00;100902.13;20881747;28;20053;-73
2023/08/15 03:24:52;;;;;;;13.77;11.80;;;;;;;24.17;100.00;100900.91;20895434;28;20050;-73
2023/08/15 03:35:16;;;;;;;13.02;11.45;;;;;;;24.25;100.00;100909.63;20896777;28;20049;-74
2023/08/15 03:45:38;;;;;;;15.30;11.85;;;;;;;24.25;100.00;100906.94;20892788;28;20045;-74
2023/08/15 03:56:02;;;;;;;17.45;12.18;;;;;;;24.25;100.00;100909.63;20892665;28;20148;-73
2023/08/15 04:06:26;;;;;;;15.20;11.88;;;;;;;24.16;100.00;100902.72;20889833;28;20398;-74
2023/08/15 04:16:50;;;;;;;15.15;12.60;;;;;;;24.27;100.00;100907.78;20888451;28;20044;-73
2023/08/15 04:27:13;;;;;;;15.75;10.80;;;;;;;24.40;100.00;100908.16;20886738;28;20082;-73
2023/08/15 04:37:37;;;;;;;14.40;9.35;;;;;;;24.78;100.00;100912.03;20886332;28;20084;-73
2023/08/15 04:48:00;;;;;;;14.95;10.48;;;;;;;25.25;100.00;100926.31;20887535;28;20045;-73
2023/08/15 04:58:24;;;;;;;14.85;8.75;;;;;;;25.68;100.00;100936.16;20872045;28;20444;-73
2023/08/15 05:08:46;;;;;;;11.88;7.80;;;;;;;26.52;100.00;100934.09;20915563;28;20504;-73
2023/08/15 05:19:11;;;;;;;13.50;7.97;;;;;;;27.38;100.00;100949.75;20891976;28;20080;-73
2023/08/15 05:29:33;;;;;;;13.65;7.80;;;;;;;27.61;100.00;100949.50;20879043;28;20045;-74
2023/08/15 05:39:58;;;;;;;13.48;7.90;;;;;;;27.49;100.00;100960.94;20880887;28;20069;-74
2023/08/15 05:50:01;;;;;;;15.15;7.18;;;;;;;28.00;100.00;100956.47;20896854;28;20092;-74
2023/08/15 06:00:25;;;;;;;11.23;7.18;;;;;;;27.50;100.00;100987.13;20890413;28;20448;-73
2023/08/15 06:10:27;;;;;;;11.82;7.03;;;;;;;28.33;100.00;100976.41;20906069;28;20615;-73
2023/08/15 06:20:51;;;;;;;12.13;6.28;;;;;;;27.99;100.00;100980.03;20867244;28;20060;-73
2023/08/15 06:30:54;;;;;;;12.55;6.32;;;;;;;28.31;100.00;100983.75;20890056;28;20040;-73
2023/08/15 06:41:18;;;;;;;8.95;6.13;;;;;;;28.69;100.00;100992.50;20895821;28;20057;-73
2023/08/15 06:51:40;;;;;;;10.07;5.63;;;;;;;28.61;100.00;101002.94;20894554;28;20057;-73
2023/08/15 07:02:06;;;;;;;9.60;5.15;;;;;;;30.09;100.00;101003.38;20904367;28;20171;-73
2023/08/15 07:12:28;;;;;;;11.43;4.70;;;;;;;29.96;100.00;100997.81;20915300;28;20048;-73
2023/08/15 07:22:53;;;;;;;9.27;4.35;;;;;;;30.29;100.00;101008.47;20893904;28;20140;-72
2023/08/15 07:33:16;;;;;;;7.78;4.40;;;;;;;30.33;100.00;101000.94;20891610;28;20072;-73
2023/08/15 07:43:42;;;;;;;11.02;4.57;;;;;;;30.78;100.00;101013.56;20935785;28;20037;-73
2023/08/15 07:54:05;;;;;;;9.00;4.80;;;;;;;31.37;100.00;101016.97;20933547;28;20461;-72
2023/08/15 08:04:30;;;;;;;10.45;4.57;;;;;;;31.09;100.00;101024.25;20883002;28;20063;-72
2023/08/15 08:14:52;;;;;;;9.43;5.13;;;;;;;30.73;100.00;101018.41;20890945;28;20045;-73
2023/08/15 08:25:19;;;;;;;11.70;4.45;;;;;;;31.57;100.00;101013.78;20890624;28;20519;-73
2023/08/15 08:35:21;;;;;;;7.85;5.20;;;;;;;31.29;100.00;101014.75;20898831;28;20060;-73
2023/08/15 08:45:50;;;;;;;9.18;4.63;;;;;;;31.57;100.00;101011.91;20874672;28;20044;-71
2023/08/15 08:56:13;;;;;;;9.85;4.43;;;;;;;32.59;95.01;101015.72;20920188;28;20524;-73
2023/08/15 09:06:37;;;;;;;10.60;4.60;;;;;;;33.66;89.16;101002.28;20897348;28;20437;-72
2023/08/15 09:17:00;;;;;;;10.07;4.33;;;;;;;34.10;80.16;101007.06;20863138;28;20087;-74
2023/08/15 09:27:25;;;;;;;7.05;3.95;;;;;;;33.88;73.34;101005.13;20893431;28;20052;-74
2023/08/15 09:37:44;;;;;;;7.70;3.88;;;;;;;33.84;72.05;101003.63;20890600;28;20052;-73
2023/08/15 09:48:10;;;;;;;11.60;4.50;;;;;;;33.60;71.67;101003.66;20854052;28;20139;-74
2023/08/15 09:58:32;;;;;;;10.02;3.92;;;;;;;33.74;73.38;101000.72;20906585;28;20131;-73
2023/08/15 10:08:57;;;;;;;6.95;3.67;;;;;;;34.19;68.89;101003.63;20868784;28;20115;-73
2023/08/15 10:19:20;;;;;;;6.45;3.65;;;;;;;33.80;66.22;100986.59;20883641;28;20497;-73
2023/08/15 10:29:24;;;;;;;6.43;3.88;;;;;;;34.06;63.68;100995.50;20893992;28;20053;-74
2023/08/15 10:40:06;;;;;;;15.32;7.57;;;;;;;33.83;61.74;100979.97;20858564;28;20084;-74
2023/08/15 10:50:34;;;;;;;19.02;13.70;;;;;;;34.12;62.62;100963.97;20896661;28;20077;-74
2023/08/15 11:00:57;;;;;;;10.17;6.00;;;;;;;34.31;59.77;100972.50;20882113;28;20057;-73
2023/08/15 11:11:21;;;;;;;7.97;4.13;;;;;;;34.47;58.07;100966.63;20867962;28;20048;-73
2023/08/15 11:21:44;;;;;;;6.18;3.30;;;;;;;34.72;57.33;100955.47;20883362;28;20045;-73
2023/08/15 11:31:58;;;;;;;7.07;3.42;;;;;;;34.71;56.75;100932.63;20856802;28;20578;-73
2023/08/15 11:42:21;;;;;;;8.10;3.78;;;;;;;34.87;55.60;100947.81;20885955;28;20055;-73
2023/08/15 11:52:46;;;;;;;9.32;3.50;;;;;;;35.04;53.01;100939.94;20879614;28;20095;-73
2023/08/15 12:03:11;;;;;;;7.35;3.65;;;;;;;35.10;51.95;100924.81;20898121;28;20052;-73
2023/08/15 12:13:36;;;;;;;7.45;3.40;;;;;;;35.12;51.23;100920.91;20899838;28;20069;-73
2023/08/15 12:23:38;;;;;;;6.18;3.45;;;;;;;35.23;49.72;100913.69;20896620;28;20088;-73
2023/08/15 12:34:02;;;;;;;8.77;3.67;;;;;;;35.01;48.27;100920.97;20906290;28;20053;-72
2023/08/15 12:44:25;;;;;;;5.17;3.47;;;;;;;34.92;47.85;100913.47;20905179;28;20053;-73
2023/08/15 12:54:49;;;;;;;7.72;4.32;;;;;;;34.46;47.65;100897.22;20900008;28;20053;-73
2023/08/15 13:05:11;;;;;;;8.88;3.85;;;;;;;34.34;50.21;100898.22;20887104;28;20052;-72
2023/08/15 13:15:35;;;;;;;7.32;4.05;;;;;;;34.11;51.84;100905.53;20898593;28;20080;-73
2023/08/15 13:25:59;;;;;;;8.07;4.13;;;;;;;33.83;53.98;100879.47;20905601;28;20049;-73
2023/08/15 13:36:23;;;;;;;8.07;4.10;;;;;;;33.58;54.48;100887.84;20897191;28;20138;-73
2023/08/15 13:46:46;;;;;;;8.23;4.40;;;;;;;33.28;56.27;100882.88;20885900;28;20045;-73
2023/08/15 13:57:10;;;;;;;10.25;4.72;;;;;;;33.12;59.35;100887.78;20897873;28;20378;-72
2023/08/15 14:07:33;;;;;;;11.98;4.80;;;;;;;33.20;58.87;100904.53;20896590;28;20060;-73
2023/08/15 14:17:58;;;;;;;7.80;4.28;;;;;;;33.09;59.39;100898.94;20892564;28;20103;-73
2023/08/15 14:28:20;;;;;;;9.85;4.40;;;;;;;33.11;58.27;100892.38;20919424;28;20052;-73
2023/08/15 14:38:44;;;;;;;8.07;4.72;;;;;;;33.50;56.80;100885.72;20905662;28;20595;-73
2023/08/15 14:49:07;;;;;;;7.90;4.50;;;;;;;33.55;59.10;100877.13;20888584;28;20037;-73
2023/08/15 14:59:31;;;;;;;9.35;4.60;;;;;;;33.03;66.95;100883.88;20922697;28;20437;-74
2023/08/15 15:09:53;;;;;;;11.00;5.18;;;;;;;32.25;72.96;100890.66;20869684;28;20053;-73
2023/08/15 15:20:17;;;;;;;9.73;5.03;;;;;;;31.62;80.77;100876.00;20886337;28;20432;-73
2023/08/15 15:30:40;;;;;;;12.15;5.65;;;;;;;31.04;88.45;100876.34;20895308;28;20056;-73
2023/08/15 15:41:04;;;;;;;10.30;5.15;;;;;;;30.85;91.59;100867.66;20907756;28;20049;-73
2023/08/15 15:51:26;;;;;;;9.55;5.88;;;;;;;30.68;97.88;100876.06;20907613;28;20052;-73
2023/08/15 16:01:53;;;;;;;10.25;5.68;;;;;;;30.47;100.00;100876.47;20894982;28;20053;-73
2023/08/15 16:12:15;;;;;;;14.33;6.87;;;;;;;30.31;100.00;100878.47;20878010;28;20045;-73
2023/08/15 16:22:39;;;;;;;13.82;6.78;;;;;;;30.07;100.00;100886.34;20933768;28;20107;-73
2023/08/15 16:33:02;;;;;;;12.60;6.88;;;;;;;29.78;100.00;100884.56;20905572;28;20049;-72
2023/08/15 16:43:27;;;;;;;13.68;7.00;;;;;;;29.68;100.00;100884.25;20906265;28;20061;-72
2023/08/15 16:53:49;;;;;;;11.43;7.05;;;;;;;29.45;100.00;100894.78;20890197;28;20175;-73
2023/08/15 17:04:13;;;;;;;16.15;8.15;;;;;;;29.17;100.00;100901.84;20926846;28;20049;-74
2023/08/15 17:14:36;;;;;;;13.45;7.65;;;;;;;28.96;100.00;100897.66;20909382;28;20505;-74
2023/08/15 17:25:00;;;;;;;15.18;7.53;;;;;;;28.73;100.00;100893.56;20885964;28;20045;-73
2023/08/15 17:35:23;;;;;;;11.77;7.93;;;;;;;28.58;100.00;100891.69;20894295;28;20045;-72
2023/08/15 17:45:47;;;;;;;16.23;8.18;;;;;;;28.44;100.00;100902.47;20879994;28;20041;-73
2023/08/15 17:56:10;;;;;;;13.38;7.45;;;;;;;28.32;100.00;100914.03;20918172;28;20489;-74
2023/08/15 18:06:36;;;;;;;12.70;7.85;;;;;;;28.21;100.00;100906.47;20887223;28;20053;-74
2023/08/15 18:16:59;;;;;;;14.88;8.23;;;;;;;28.11;100.00;100911.50;20915770;28;20144;-74
2023/08/15 18:27:25;;;;;;;13.55;8.43;;;;;;;28.00;100.00;100913.06;20901073;28;20465;-74
2023/08/15 18:37:48;;;;;;;13.45;7.82;;;;;;;27.90;100.00;100920.78;20887109;28;20571;-74
2023/08/15 18:48:12;;;;;;;15.23;7.40;;;;;;;27.83;100.00;100932.94;20913210;28;20033;-74
2023/08/15 18:58:34;;;;;;;13.65;7.65;;;;;;;27.72;100.00;100927.22;20896044;28;20059;-74
2023/08/15 19:08:58;;;;;;;13.55;7.63;;;;;;;27.64;100.00;100919.47;20896843;28;20057;-74
2023/08/15 19:19:21;;;;;;;12.13;7.05;;;;;;;27.51;100.00;100931.88;20867163;28;20065;-74
2023/08/15 19:29:45;;;;;;;11.88;8.13;;;;;;;27.44;100.00;100929.59;20925330;28;20102;-73
2023/08/15 19:40:08;;;;;;;12.82;7.85;;;;;;;27.35;100.00;100925.50;20899074;28;20140;-73
2023/08/15 19:50:32;;;;;;;11.70;7.32;;;;;;;27.27;100.00;100920.47;20889339;28;20045;-73
2023/08/15 20:00:55;;;;;;;15.25;7.70;;;;;;;27.23;100.00;100924.31;20895756;28;20045;-73
2023/08/15 20:10:58;;;;;;;14.88;8.15;;;;;;;27.20;100.00;100932.59;20908612;28;20118;-73
2023/08/15 20:21:22;;;;;;;12.38;7.68;;;;;;;27.12;100.00;100923.06;20886821;28;20098;-73
2023/08/15 20:31:46;;;;;;;13.38;8.30;;;;;;;27.00;100.00;100910.13;20908209;28;20726;-74
2023/08/15 20:42:09;;;;;;;11.25;7.72;;;;;;;26.89;100.00;100919.69;20916933;28;20142;-74
2023/08/15 20:52:13;;;;;;;13.20;7.68;;;;;;;26.82;100.00;100904.66;20888151;28;20061;-74
2023/08/15 21:02:36;;;;;;;10.18;8.07;;;;;;;26.77;100.00;100906.72;20910854;28;20258;-74
2023/08/15 21:12:57;;;;;;;14.77;8.38;;;;;;;26.69;100.00;100898.09;20896554;28;20057;-73
2023/08/15 21:23:20;;;;;;;17.80;8.32;;;;;;;26.59;100.00;100891.34;20887874;28;20493;-73
2023/08/15 21:33:44;;;;;;;11.48;8.35;;;;;;;26.51;100.00;100878.19;20877855;28;20049;-74
2023/08/15 21:43:46;;;;;;;14.63;8.52;;;;;;;26.44;100.00;100878.56;20898290;28;20060;-71
2023/08/15 21:54:11;;;;;;;8.38;7.47;;;;;;;26.38;100.00;100868.03;20894188;28;20088;-72
2023/08/15 22:04:34;;;;;;;12.55;8.45;;;;;;;26.31;100.00;100866.56;20893165;28;20051;-72
2023/08/15 22:14:58;;;;;;;14.50;7.55;;;;;;;26.24;100.00;100859.66;20919067;28;20102;-72
2023/08/15 22:25:22;;;;;;;14.55;7.70;;;;;;;26.21;100.00;100847.13;20888915;28;20134;-73
2023/08/15 22:35:46;;;;;;;12.18;7.32;;;;;;;26.18;100.00;100839.16;20882820;28;20045;-73
2023/08/15 22:45:54;;;;;;;12.57;7.93;;;;;;;26.11;100.00;100822.34;20896044;28;20136;-73
2023/08/15 22:56:18;;;;;;;12.30;7.93;;;;;;;26.06;100.00;100820.78;20886812;28;20649;-73
2023/08/15 23:06:40;;;;;;;11.18;8.25;;;;;;;26.03;100.00;100816.41;20879112;28;20064;-73
2023/08/15 23:17:05;;;;;;;11.95;9.07;;;;;;;25.97;100.00;100811.28;20869335;28;20045;-73
2023/08/15 23:27:28;;;;;;;15.13;7.93;;;;;;;25.89;100.00;100797.25;20872960;28;20136;-74
2023/08/15 23:37:51;;;;;;;12.82;8.82;;;;;;;25.87;100.00;100809.06;20923947;28;20511;-74
2023/08/15 23:48:14;;;;;;;15.82;8.80;;;;;;;25.80;100.00;100790.44;20934447;28;20045;-72
2023/08/15 23:58:38;;;;;;;10.10;7.70;;;;;;;25.70;100.00;100790.94;20912173;28;20094;-74
